Time;durP1;ratioP1;P1;durP2;ratioP2;P2;SDS_P1;SDS_P2;PMS_P1;PMS_P2;Temp;Humidity;BMP_temperature;BMP_pressure;BME280_temperature;BME280_humidity;BME280_pressure;Samples;Min_cycle;Max_cycle;Signal;HPM_P1;HPM_P2
2023/04/16 00:00:25;;;;;;;126.43;42.85;;;;;;;;;;5029257;28;20495;-75
2023/04/16 00:02:51;;;;;;;121.40;40.47;;;;;;;;;;5028624;28;20452;-73
2023/04/16 00:05:17;;;;;;;124.07;40.80;;;;;;;;;;5029447;28;20095;-74
2023/04/16 00:07:43;;;;;;;115.95;40.80;;;;;;;;;;5028890;28;20071;-73
2023/04/16 00:10:09;;;;;;;116.40;39.33;;;;;;;;;;5029657;28;20041;-74
2023/04/16 00:12:35;;;;;;;107.93;39.63;;;;;;;;;;5029768;28;20044;-74
2023/04/16 00:15:01;;;;;;;95.47;37.03;;;;;;;;;;5028713;28;20080;-74
2023/04/16 00:17:27;;;;;;;106.55;38.95;;;;;;;;;;5012326;28;20049;-74
2023/04/16 00:19:53;;;;;;;107.00;38.80;;;;;;;;;;5026864;28;20060;-74
2023/04/16 00:22:19;;;;;;;112.53;39.97;;;;;;;;;;5028830;28;20408;-75
2023/04/16 00:24:45;;;;;;;122.28;41.22;;;;;;;;;;5028275;28;20128;-74
2023/04/16 00:27:11;;;;;;;185.32;44.75;;;;;;;;;;5029362;28;20098;-74
2023/04/16 00:29:37;;;;;;;126.60;41.67;;;;;;;;;;5028493;28;20786;-74
2023/04/16 00:32:03;;;;;;;131.45;43.70;;;;;;;;;;5027924;28;20051;-73
2023/04/16 00:34:29;;;;;;;138.38;45.47;;;;;;;;;;5029510;28;20033;-74
2023/04/16 00:36:55;;;;;;;152.23;47.75;;;;;;;;;;5027778;28;20474;-74
2023/04/16 00:39:21;;;;;;;149.77;47.45;;;;;;;;;;5028823;28;20106;-74
2023/04/16 00:41:48;;;;;;;149.25;47.10;;;;;;;;;;5028014;28;20099;-73
2023/04/16 00:44:14;;;;;;;147.98;48.75;;;;;;;;;;5028586;28;20049;-74
2023/04/16 00:46:40;;;;;;;158.80;48.97;;;;;;;;;;5028434;28;20049;-74
2023/04/16 00:49:07;;;;;;;146.05;48.28;;;;;;;;;;5045435;28;20037;-74
2023/04/16 00:51:34;;;;;;;146.10;48.63;;;;;;;;;;5046073;28;20061;-73
2023/04/16 00:54:01;;;;;;;168.02;49.97;;;;;;;;;;5027959;28;20543;-74
2023/04/16 00:56:28;;;;;;;166.15;49.97;;;;;;;;;;5047055;28;20899;-74
2023/04/16 00:58:57;;;;;;;186.93;51.13;;;;;;;;;;5027180;28;20045;-74
2023/04/16 01:01:23;;;;;;;217.50;54.72;;;;;;;;;;5028031;28;20091;-75
2023/04/16 01:03:49;;;;;;;258.08;55.63;;;;;;;;;;5043998;28;20132;-74
2023/04/16 01:06:18;;;;;;;210.77;55.85;;;;;;;;;;5027702;28;20053;-74
2023/04/16 01:08:44;;;;;;;224.45;56.70;;;;;;;;;;5046676;28;20484;-74
2023/04/16 01:11:11;;;;;;;232.50;53.85;;;;;;;;;;5028032;28;20057;-75
2023/04/16 01:13:38;;;;;;;232.02;57.38;;;;;;;;;;5029016;28;20148;-74
2023/04/16 01:16:06;;;;;;;235.05;57.88;;;;;;;;;;5026602;28;20049;-74
2023/04/16 01:18:32;;;;;;;222.40;56.95;;;;;;;;;;5027433;28;20029;-73
2023/04/16 01:20:58;;;;;;;215.00;55.50;;;;;;;;;;5008955;28;20048;-74
2023/04/16 01:23:24;;;;;;;202.20;54.42;;;;;;;;;;5042911;28;20110;-75
2023/04/16 01:25:50;;;;;;;190.80;55.17;;;;;;;;;;5027044;28;20048;-75
2023/04/16 01:28:16;;;;;;;179.02;53.15;;;;;;;;;;5009591;28;20048;-75
2023/04/16 01:30:42;;;;;;;213.18;57.22;;;;;;;;;;5026331;28;20107;-73
2023/04/16 01:33:12;;;;;;;216.18;58.35;;;;;;;;;;5025884;28;20037;-74
2023/04/16 01:35:38;;;;;;;222.93;57.33;;;;;;;;;;5027207;28;20685;-74
2023/04/16 01:38:05;;;;;;;244.43;58.65;;;;;;;;;;5025051;28;20051;-75
2023/04/16 01:40:31;;;;;;;201.88;56.13;;;;;;;;;;5026356;28;20052;-74
2023/04/16 01:42:57;;;;;;;215.00;57.42;;;;;;;;;;5026793;28;20599;-74
2023/04/16 01:45:23;;;;;;;236.05;58.50;;;;;;;;;;5026165;28;20102;-75
2023/04/16 01:47:50;;;;;;;204.70;57.25;;;;;;;;;;5010952;28;20081;-74
2023/04/16 01:50:16;;;;;;;241.65;58.35;;;;;;;;;;5043705;28;20048;-74
2023/04/16 01:52:42;;;;;;;235.63;57.85;;;;;;;;;;5027107;28;20409;-74
2023/04/16 01:55:09;;;;;;;262.65;61.15;;;;;;;;;;5025038;28;20069;-75
2023/04/16 01:57:35;;;;;;;246.40;59.60;;;;;;;;;;5026833;28;20041;-74
2023/04/16 02:00:00;;;;;;;275.33;61.67;;;;;;;;;;5025162;28;20045;-74
2023/04/16 02:02:27;;;;;;;282.75;62.35;;;;;;;;;;5025540;28;20083;-74
2023/04/16 02:04:54;;;;;;;236.43;57.70;;;;;;;;;;5044680;28;20041;-74
2023/04/16 02:07:20;;;;;;;262.30;61.55;;;;;;;;;;5024951;28;20053;-74
2023/04/16 02:09:46;;;;;;;282.17;63.67;;;;;;;;;;5026592;28;20090;-74
2023/04/16 02:12:12;;;;;;;304.27;61.78;;;;;;;;;;5025398;28;20063;-75
2023/04/16 02:14:38;;;;;;;267.95;59.42;;;;;;;;;;5027473;28;20133;-73
2023/04/16 02:17:04;;;;;;;271.58;58.63;;;;;;;;;;5025684;28;20853;-74
2023/04/16 02:19:30;;;;;;;260.50;57.72;;;;;;;;;;5004658;28;1111573;-74
2023/04/16 02:22:00;;;;;;;246.85;56.00;;;;;;;;;;5026483;28;20080;-74
2023/04/16 02:24:26;;;;;;;253.88;57.22;;;;;;;;;;5026875;28;20459;-74
2023/04/16 02:26:52;;;;;;;260.55;57.42;;;;;;;;;;5027214;28;20492;-74
2023/04/16 02:29:18;;;;;;;282.65;56.53;;;;;;;;;;5024463;28;20053;-74
2023/04/16 02:31:45;;;;;;;242.93;53.75;;;;;;;;;;5024217;28;20105;-72
2023/04/16 02:34:11;;;;;;;240.52;55.65;;;;;;;;;;5025858;28;20049;-73
2023/04/16 02:36:37;;;;;;;226.13;53.63;;;;;;;;;;5026757;28;20041;-74
2023/04/16 02:39:04;;;;;;;281.48;58.28;;;;;;;;;;5044582;28;20041;-74
2023/04/16 02:41:30;;;;;;;215.93;54.20;;;;;;;;;;5026752;28;20087;-74
2023/04/16 02:43:56;;;;;;;158.55;47.28;;;;;;;;;;5027700;28;21302;-73
2023/04/16 02:46:22;;;;;;;192.77;50.45;;;;;;;;;;5026592;28;20053;-74
2023/04/16 02:48:48;;;;;;;176.90;49.28;;;;;;;;;;5026898;28;20049;-74
2023/04/16 02:51:14;;;;;;;202.38;51.65;;;;;;;;;;5029972;28;20037;-74
2023/04/16 02:53:40;;;;;;;234.18;52.78;;;;;;;;;;5030699;28;20037;-74
2023/04/16 02:56:06;;;;;;;197.63;51.33;;;;;;;;;;5028273;28;20072;-74
2023/04/16 02:58:32;;;;;;;203.65;50.08;;;;;;;;;;5048268;28;20037;-74
2023/04/16 03:00:58;;;;;;;197.38;50.13;;;;;;;;;;5046530;28;20122;-74
2023/04/16 03:03:24;;;;;;;189.60;50.13;;;;;;;;;;5029755;28;20029;-75
2023/04/16 03:05:50;;;;;;;178.52;50.03;;;;;;;;;;5030482;28;20070;-74
2023/04/16 03:08:16;;;;;;;181.98;48.55;;;;;;;;;;5029602;28;20045;-74
2023/04/16 03:10:42;;;;;;;167.43;50.17;;;;;;;;;;5029596;28;20389;-74
2023/04/16 03:13:08;;;;;;;162.55;49.38;;;;;;;;;;5030155;28;20041;-75
2023/04/16 03:15:34;;;;;;;146.95;49.00;;;;;;;;;;5030530;28;20037;-73
2023/04/16 03:18:00;;;;;;;145.23;48.72;;;;;;;;;;5029838;28;20451;-74
2023/04/16 03:20:26;;;;;;;160.48;51.13;;;;;;;;;;5045303;28;20382;-73
2023/04/16 03:22:52;;;;;;;193.85;54.90;;;;;;;;;;5030484;28;20060;-74
2023/04/16 03:25:18;;;;;;;203.25;53.72;;;;;;;;;;5028939;28;20473;-74
2023/04/16 03:27:44;;;;;;;197.63;53.42;;;;;;;;;;5030588;28;20128;-74
2023/04/16 03:30:11;;;;;;;203.40;52.08;;;;;;;;;;5028903;28;21393;-74
2023/04/16 03:32:38;;;;;;;163.18;53.03;;;;;;;;;;5047262;28;20539;-73
2023/04/16 03:35:05;;;;;;;178.43;53.63;;;;;;;;;;5029769;28;20055;-73
2023/04/16 03:37:31;;;;;;;179.68;55.80;;;;;;;;;;5029040;28;20102;-73
2023/04/16 03:39:56;;;;;;;175.95;53.85;;;;;;;;;;5029916;28;20037;-73
2023/04/16 03:42:22;;;;;;;172.80;53.80;;;;;;;;;;5029107;28;20059;-73
2023/04/16 03:44:48;;;;;;;157.70;52.17;;;;;;;;;;5030961;28;20056;-74
2023/04/16 03:47:15;;;;;;;145.98;50.60;;;;;;;;;;5028800;28;20108;-74
2023/04/16 03:49:41;;;;;;;143.32;48.40;;;;;;;;;;5030198;28;20088;-75
2023/04/16 03:52:07;;;;;;;131.18;48.40;;;;;;;;;;5027994;28;20077;-73
2023/04/16 03:54:33;;;;;;;127.20;46.97;;;;;;;;;;5029906;28;20099;-73
2023/04/16 03:56:59;;;;;;;115.75;45.53;;;;;;;;;;5047792;28;20057;-75
2023/04/16 03:59:25;;;;;;;122.13;46.42;;;;;;;;;;5029938;28;20045;-73
2023/04/16 04:01:51;;;;;;;135.88;47.70;;;;;;;;;;5029372;28;20118;-73
2023/04/16 04:04:17;;;;;;;126.28;46.00;;;;;;;;;;5046859;28;20044;-74
2023/04/16 04:06:45;;;;;;;128.00;46.92;;;;;;;;;;5029179;28;20114;-74
2023/04/16 04:09:11;;;;;;;121.85;44.65;;;;;;;;;;5047424;28;20044;-74
2023/04/16 04:11:36;;;;;;;120.28;45.58;;;;;;;;;;5029675;28;20073;-74
2023/04/16 04:14:04;;;;;;;128.73;47.17;;;;;;;;;;5047895;28;20100;-73
2023/04/16 04:16:30;;;;;;;138.05;47.38;;;;;;;;;;5046811;28;20391;-74
2023/04/16 04:18:56;;;;;;;144.88;45.60;;;;;;;;;;5029623;28;20520;-73
2023/04/16 04:21:22;;;;;;;132.00;45.55;;;;;;;;;;5028238;28;20053;-74
2023/04/16 04:23:48;;;;;;;138.15;46.05;;;;;;;;;;5029808;28;20049;-73
2023/04/16 04:26:14;;;;;;;158.00;47.88;;;;;;;;;;5045783;28;20459;-73
2023/04/16 04:28:40;;;;;;;156.45;45.85;;;;;;;;;;5029471;28;20063;-74
2023/04/16 04:31:06;;;;;;;137.43;45.45;;;;;;;;;;5027137;28;20044;-73
2023/04/16 04:33:32;;;;;;;142.27;47.15;;;;;;;;;;5028795;28;20059;-74
2023/04/16 04:35:58;;;;;;;136.75;46.85;;;;;;;;;;5028425;28;20045;-75
2023/04/16 04:38:24;;;;;;;169.90;49.80;;;;;;;;;;5029028;28;20094;-74
2023/04/16 04:40:53;;;;;;;154.35;47.47;;;;;;;;;;5028509;28;20049;-74
2023/04/16 04:43:20;;;;;;;151.82;46.15;;;;;;;;;;5044914;28;20049;-74
2023/04/16 04:45:47;;;;;;;163.18;47.95;;;;;;;;;;5046417;28;20098;-74
2023/04/16 04:48:14;;;;;;;144.77;46.25;;;;;;;;;;5010612;28;20053;-74
2023/04/16 04:50:40;;;;;;;160.35;47.42;;;;;;;;;;5028492;28;20286;-74
2023/04/16 04:53:09;;;;;;;169.02;48.95;;;;;;;;;;5027443;28;20033;-75
2023/04/16 04:55:38;;;;;;;160.57;47.20;;;;;;;;;;5046629;28;20097;-74
2023/04/16 04:58:05;;;;;;;154.02;48.83;;;;;;;;;;5028783;28;20501;-74
2023/04/16 05:00:31;;;;;;;781.30;76.60;;;;;;;;;;5026926;28;20052;-74
2023/04/16 05:02:57;;;;;;;158.57;47.40;;;;;;;;;;5027208;28;20064;-74
2023/04/16 05:05:23;;;;;;;163.07;49.10;;;;;;;;;;5027685;28;20051;-74
2023/04/16 05:07:49;;;;;;;176.88;47.60;;;;;;;;;;5028237;28;20029;-74
2023/04/16 05:10:15;;;;;;;179.20;46.63;;;;;;;;;;5046361;28;20051;-72
2023/04/16 05:12:41;;;;;;;174.32;48.65;;;;;;;;;;5027615;28;20053;-74
2023/04/16 05:15:08;;;;;;;162.45;48.63;;;;;;;;;;5028842;28;20566;-74
2023/04/16 05:17:34;;;;;;;193.35;51.78;;;;;;;;;;5026589;28;20044;-74
2023/04/16 05:20:00;;;;;;;218.93;54.50;;;;;;;;;;5028976;28;20162;-74
2023/04/16 05:22:26;;;;;;;221.15;55.28;;;;;;;;;;5026317;28;20764;-74
2023/04/16 05:24:52;;;;;;;233.63;56.45;;;;;;;;;;5011998;28;20053;-74
2023/04/16 05:27:18;;;;;;;243.02;55.25;;;;;;;;;;5027077;28;20493;-74
2023/04/16 05:29:44;;;;;;;208.68;51.95;;;;;;;;;;5029089;28;20045;-74
2023/04/16 05:32:10;;;;;;;243.35;57.38;;;;;;;;;;5045125;28;20045;-74
2023/04/16 05:34:36;;;;;;;217.43;53.55;;;;;;;;;;5045593;28;20065;-74
2023/04/16 05:37:02;;;;;;;183.63;51.50;;;;;;;;;;5027641;28;20053;-73
2023/04/16 05:39:28;;;;;;;202.57;54.40;;;;;;;;;;5026964;28;20053;-74
2023/04/16 05:41:54;;;;;;;196.15;51.53;;;;;;;;;;5027867;28;20132;-75
2023/04/16 05:44:20;;;;;;;198.77;51.88;;;;;;;;;;5043818;28;20057;-74
2023/04/16 05:46:46;;;;;;;181.68;49.17;;;;;;;;;;5027158;28;20057;-73
2023/04/16 05:49:12;;;;;;;164.40;49.67;;;;;;;;;;5026916;28;20048;-74
2023/04/16 05:51:38;;;;;;;163.82;50.83;;;;;;;;;;5044316;28;20120;-74
2023/04/16 05:54:04;;;;;;;156.60;50.20;;;;;;;;;;5034522;28;20254;-75
2023/04/16 05:56:30;;;;;;;153.15;48.58;;;;;;;;;;5026785;28;20052;-74
2023/04/16 05:58:56;;;;;;;154.38;49.13;;;;;;;;;;5044443;28;20737;-75
2023/04/16 06:01:22;;;;;;;152.35;48.85;;;;;;;;;;5025614;28;20049;-73
2023/04/16 06:03:48;;;;;;;152.90;48.40;;;;;;;;;;5045356;28;20112;-73
2023/04/16 06:06:14;;;;;;;141.05;46.70;;;;;;;;;;5026298;28;20045;-75
2023/04/16 06:08:40;;;;;;;114.40;44.60;;;;;;;;;;5027235;28;20053;-74
2023/04/16 06:11:06;;;;;;;126.18;44.47;;;;;;;;;;5027167;28;20037;-75
2023/04/16 06:13:32;;;;;;;122.43;45.17;;;;;;;;;;5010403;28;20058;-75
2023/04/16 06:15:58;;;;;;;111.63;43.53;;;;;;;;;;5028276;28;20045;-75
2023/04/16 06:18:24;;;;;;;117.60;44.58;;;;;;;;;;5043553;28;20422;-74
2023/04/16 06:20:50;;;;;;;117.07;43.03;;;;;;;;;;5026263;28;20124;-74
2023/04/16 06:23:16;;;;;;;97.28;41.22;;;;;;;;;;5025285;28;20132;-73
2023/04/16 06:25:42;;;;;;;98.38;40.90;;;;;;;;;;5027662;28;20071;-73
2023/04/16 06:28:08;;;;;;;96.97;40.25;;;;;;;;;;5043089;28;20071;-74
2023/04/16 06:30:34;;;;;;;93.15;40.33;;;;;;;;;;5044160;28;20076;-74
2023/04/16 06:33:00;;;;;;;91.53;39.08;;;;;;;;;;5043981;28;20063;-74
2023/04/16 06:35:26;;;;;;;101.40;39.03;;;;;;;;;;5044388;28;20859;-75
2023/04/16 06:37:52;;;;;;;92.75;38.83;;;;;;;;;;5044277;28;20044;-74
2023/04/16 06:40:18;;;;;;;93.43;39.53;;;;;;;;;;5025143;28;20049;-74
2023/04/16 06:42:44;;;;;;;89.55;38.15;;;;;;;;;;5045031;28;20057;-75
2023/04/16 06:45:11;;;;;;;93.05;38.08;;;;;;;;;;5013685;28;20064;-74
2023/04/16 06:47:37;;;;;;;81.70;37.65;;;;;;;;;;5026537;28;20053;-74
2023/04/16 06:50:03;;;;;;;86.88;37.17;;;;;;;;;;5027399;28;20134;-75
2023/04/16 06:52:29;;;;;;;78.40;36.38;;;;;;;;;;5043655;28;20084;-75
2023/04/16 06:54:55;;;;;;;78.53;34.92;;;;;;;;;;5028073;28;20056;-73
2023/04/16 06:57:21;;;;;;;75.13;35.15;;;;;;;;;;5043204;28;20049;-75
2023/04/16 06:59:47;;;;;;;78.32;33.80;;;;;;;;;;5027183;28;20041;-75
2023/04/16 07:02:13;;;;;;;71.10;33.17;;;;;;;;;;5009117;28;20072;-74
2023/04/16 07:04:39;;;;;;;72.90;34.25;;;;;;;;;;5026956;28;20614;-75
2023/04/16 07:07:05;;;;;;;78.32;33.97;;;;;;;;;;5025763;28;20041;-75
2023/04/16 07:09:31;;;;;;;81.53;34.20;;;;;;;;;;5027101;28;20081;-74
2023/04/16 07:11:57;;;;;;;73.57;34.40;;;;;;;;;;5010721;28;20048;-75
2023/04/16 07:14:23;;;;;;;74.93;34.67;;;;;;;;;;5026215;28;20053;-75
2023/04/16 07:16:49;;;;;;;71.93;32.75;;;;;;;;;;5026729;28;20056;-75
2023/04/16 07:19:15;;;;;;;69.40;34.58;;;;;;;;;;5002491;28;20173;-75
2023/04/16 07:21:42;;;;;;;75.10;35.08;;;;;;;;;;5003759;28;20057;-74
2023/04/16 07:24:09;;;;;;;70.07;31.92;;;;;;;;;;5001780;28;20406;-75
2023/04/16 07:26:35;;;;;;;67.35;32.50;;;;;;;;;;5003783;28;20049;-75
2023/04/16 07:29:01;;;;;;;71.53;33.03;;;;;;;;;;5002724;28;20460;-75
2023/04/16 07:31:27;;;;;;;72.93;32.72;;;;;;;;;;5002193;28;20045;-75
2023/04/16 07:33:53;;;;;;;72.45;32.78;;;;;;;;;;5004622;28;20088;-74
2023/04/16 07:36:20;;;;;;;72.38;33.05;;;;;;;;;;5004263;28;20421;-75
2023/04/16 07:38:46;;;;;;;66.75;29.85;;;;;;;;;;5007216;28;20132;-75
2023/04/16 07:41:12;;;;;;;64.63;31.55;;;;;;;;;;5004991;28;20132;-75
2023/04/16 07:43:38;;;;;;;62.15;29.75;;;;;;;;;;5006687;28;20049;-74
2023/04/16 07:46:04;;;;;;;63.03;28.08;;;;;;;;;;5007060;28;20100;-75
2023/04/16 07:48:30;;;;;;;59.22;29.05;;;;;;;;;;5023538;28;20042;-75
2023/04/16 07:50:57;;;;;;;61.83;32.78;;;;;;;;;;5005779;28;20128;-74
2023/04/16 07:53:23;;;;;;;67.57;29.67;;;;;;;;;;5006380;28;20421;-74
2023/04/16 07:55:49;;;;;;;67.72;28.55;;;;;;;;;;5006266;28;20058;-75
2023/04/16 07:58:15;;;;;;;58.80;29.50;;;;;;;;;;5005876;28;20081;-75
2023/04/16 08:00:41;;;;;;;64.32;29.63;;;;;;;;;;5005840;28;20086;-74
2023/04/16 08:03:07;;;;;;;58.75;28.00;;;;;;;;;;5004844;28;20542;-75
2023/04/16 08:05:33;;;;;;;61.30;28.95;;;;;;;;;;5023048;28;20034;-75
2023/04/16 08:07:59;;;;;;;52.70;27.30;;;;;;;;;;5005540;28;20108;-75
2023/04/16 08:10:25;;;;;;;59.58;26.27;;;;;;;;;;5004326;28;20052;-75
2023/04/16 08:12:51;;;;;;;55.88;27.48;;;;;;;;;;5006416;28;20417;-74
2023/04/16 08:15:17;;;;;;;54.92;27.13;;;;;;;;;;5005924;28;20633;-74
2023/04/16 08:17:43;;;;;;;59.72;25.65;;;;;;;;;;5005485;28;20053;-74
2023/04/16 08:20:09;;;;;;;60.45;26.23;;;;;;;;;;5033329;28;20796;-75
2023/04/16 08:22:35;;;;;;;61.20;26.40;;;;;;;;;;5012296;28;20617;-75
2023/04/16 08:25:01;;;;;;;54.80;24.88;;;;;;;;;;5046599;28;20079;-75
2023/04/16 08:27:27;;;;;;;53.42;25.83;;;;;;;;;;5028460;28;20037;-75
2023/04/16 08:29:53;;;;;;;53.22;23.88;;;;;;;;;;5029617;28;20072;-75
2023/04/16 08:32:19;;;;;;;53.38;24.05;;;;;;;;;;5027993;28;20151;-75
2023/04/16 08:34:45;;;;;;;59.72;24.25;;;;;;;;;;5029496;28;20064;-75
2023/04/16 08:37:11;;;;;;;50.65;22.48;;;;;;;;;;5027053;28;20076;-75
2023/04/16 08:39:37;;;;;;;45.13;21.85;;;;;;;;;;5046392;28;20107;-75
2023/04/16 08:42:04;;;;;;;44.50;22.27;;;;;;;;;;5027538;28;20045;-75
2023/04/16 08:44:35;;;;;;;45.92;20.95;;;;;;;;;;5013195;28;20062;-75
2023/04/16 08:47:01;;;;;;;47.67;21.95;;;;;;;;;;5026604;28;20511;-74
2023/04/16 08:49:27;;;;;;;47.72;22.02;;;;;;;;;;5028751;28;20049;-74
2023/04/16 08:51:54;;;;;;;47.80;23.75;;;;;;;;;;5028408;28;20045;-75
2023/04/16 08:54:31;;;;;;;56.33;21.88;;;;;;;;;;5028334;28;20052;-75
2023/04/16 08:56:58;;;;;;;41.83;21.38;;;;;;;;;;5046525;28;20037;-75
2023/04/16 08:59:25;;;;;;;44.33;21.05;;;;;;;;;;5027455;28;20063;-75
2023/04/16 09:01:52;;;;;;;40.05;20.25;;;;;;;;;;5027479;28;20059;-76
2023/04/16 09:04:18;;;;;;;48.90;22.58;;;;;;;;;;5046329;28;20718;-75
2023/04/16 09:06:45;;;;;;;40.63;19.70;;;;;;;;;;5027512;28;20088;-75
2023/04/16 09:09:12;;;;;;;41.75;19.73;;;;;;;;;;5029177;28;20098;-76
2023/04/16 09:11:38;;;;;;;41.20;20.52;;;;;;;;;;5027498;28;20055;-75
2023/04/16 09:14:09;;;;;;;37.75;18.45;;;;;;;;;;5029123;28;20053;-75
2023/04/16 09:16:36;;;;;;;35.63;19.33;;;;;;;;;;5015268;28;20095;-75
2023/04/16 09:19:02;;;;;;;41.17;18.17;;;;;;;;;;5027462;28;20584;-75
2023/04/16 09:21:28;;;;;;;39.15;19.38;;;;;;;;;;5026224;28;20489;-75
2023/04/16 09:23:54;;;;;;;30.55;18.30;;;;;;;;;;5046008;28;20049;-75
2023/04/16 09:26:21;;;;;;;35.47;18.83;;;;;;;;;;5046283;28;20091;-75
2023/04/16 09:28:51;;;;;;;38.63;18.20;;;;;;;;;;5027223;28;20139;-75
2023/04/16 09:31:18;;;;;;;41.45;18.95;;;;;;;;;;5044831;28;20047;-75
2023/04/16 09:33:59;;;;;;;35.55;18.27;;;;;;;;;;5026894;28;20090;-75
2023/04/16 09:36:26;;;;;;;42.08;18.90;;;;;;;;;;4999902;28;20033;-75
2023/04/16 09:38:53;;;;;;;34.90;18.15;;;;;;;;;;5044286;28;20566;-75
2023/04/16 09:41:20;;;;;;;33.00;17.77;;;;;;;;;;5044299;28;20428;-75
2023/04/16 09:44:04;;;;;;;29.58;16.83;;;;;;;;;;5045584;28;20036;-75
2023/04/16 09:46:31;;;;;;;30.98;17.50;;;;;;;;;;5026386;28;20044;-76
2023/04/16 09:48:57;;;;;;;27.35;17.17;;;;;;;;;;5027849;28;20045;-76
2023/04/16 09:51:25;;;;;;;30.33;17.83;;;;;;;;;;5025576;28;20583;-75
2023/04/16 09:53:53;;;;;;;33.50;17.02;;;;;;;;;;5028308;28;20443;-75
2023/04/16 09:56:22;;;;;;;27.65;16.48;;;;;;;;;;5026986;28;20037;-75
2023/04/16 09:58:48;;;;;;;26.73;16.48;;;;;;;;;;5043949;28;20080;-74
2023/04/16 10:01:17;;;;;;;30.13;17.25;;;;;;;;;;5045688;28;20130;-75
2023/04/16 10:03:49;;;;;;;26.95;16.60;;;;;;;;;;5025559;28;20048;-75
2023/04/16 10:06:19;;;;;;;28.30;16.38;;;;;;;;;;5026841;28;20060;-75
2023/04/16 10:08:48;;;;;;;29.48;16.88;;;;;;;;;;5026827;28;20056;-76
2023/04/16 10:11:14;;;;;;;31.48;16.63;;;;;;;;;;5026285;28;20052;-75
2023/04/16 10:13:40;;;;;;;35.28;17.80;;;;;;;;;;5044829;28;20045;-76
2023/04/16 10:16:07;;;;;;;30.15;17.30;;;;;;;;;;5026983;28;20156;-75
2023/04/16 10:18:36;;;;;;;29.58;16.73;;;;;;;;;;5027389;28;20076;-76
2023/04/16 10:21:01;;;;;;;;;;;;;;;;;;5010144;28;20049;-75
2023/04/16 10:23:27;;;;;;;31.20;17.73;;;;;;;;;;5043531;28;20261;-75
2023/04/16 10:25:54;;;;;;;31.67;16.67;;;;;;;;;;5025689;28;20044;-75
2023/04/16 10:28:20;;;;;;;28.75;16.98;;;;;;;;;;5027446;28;20057;-75
2023/04/16 10:30:51;;;;;;;31.88;16.92;;;;;;;;;;5026768;28;20492;-76
2023/04/16 10:33:25;;;;;;;27.23;16.60;;;;;;;;;;5042837;28;20052;-75
2023/04/16 10:35:52;;;;;;;26.58;16.73;;;;;;;;;;5026542;28;20040;-75
2023/04/16 10:38:25;;;;;;;25.48;15.90;;;;;;;;;;5025955;28;20064;-75
2023/04/16 10:40:58;;;;;;;24.23;15.40;;;;;;;;;;5026773;28;20087;-75
2023/04/16 10:43:24;;;;;;;22.05;15.13;;;;;;;;;;5025464;28;20049;-76
2023/04/16 10:45:50;;;;;;;25.42;15.35;;;;;;;;;;5027464;28;20051;-75
2023/04/16 10:48:20;;;;;;;23.38;14.93;;;;;;;;;;5043745;28;20134;-75
2023/04/16 10:50:56;;;;;;;33.90;16.35;;;;;;;;;;5026722;28;20084;-75
2023/04/16 10:53:23;;;;;;;26.00;15.23;;;;;;;;;;5025475;28;20171;-76
2023/04/16 10:56:10;;;;;;;25.75;15.60;;;;;;;;;;5044015;28;20413;-75
2023/04/16 10:58:36;;;;;;;28.33;15.52;;;;;;;;;;5026819;28;20045;-75
2023/04/16 11:01:13;;;;;;;26.88;15.68;;;;;;;;;;5025629;28;20124;-75
2023/04/16 11:03:43;;;;;;;27.35;15.90;;;;;;;;;;5032425;28;20053;-75
2023/04/16 11:06:13;;;;;;;26.70;16.52;;;;;;;;;;5026135;28;20562;-75
2023/04/16 11:08:40;;;;;;;30.30;16.88;;;;;;;;;;5025792;28;20582;-75
2023/04/16 11:11:06;;;;;;;26.35;15.32;;;;;;;;;;5012750;28;20099;-76
2023/04/16 11:13:32;;;;;;;27.80;15.82;;;;;;;;;;5046488;28;20045;-76
2023/04/16 11:15:58;;;;;;;29.33;17.23;;;;;;;;;;5030888;28;20041;-75
2023/04/16 11:18:26;;;;;;;25.75;16.65;;;;;;;;;;5029888;28;20456;-75
2023/04/16 11:20:52;;;;;;;28.70;16.55;;;;;;;;;;5045850;28;20056;-76
2023/04/16 11:23:18;;;;;;;31.60;17.85;;;;;;;;;;5030961;28;20074;-75
2023/04/16 11:25:44;;;;;;;31.73;19.00;;;;;;;;;;5029452;28;20041;-76
2023/04/16 11:28:10;;;;;;;32.70;17.52;;;;;;;;;;5014036;28;20045;-75
2023/04/16 11:30:40;;;;;;;29.83;16.42;;;;;;;;;;5028177;28;20085;-75
2023/04/16 11:33:10;;;;;;;31.20;18.23;;;;;;;;;;5046196;28;20041;-76
2023/04/16 11:35:38;;;;;;;24.38;15.55;;;;;;;;;;5029485;28;20041;-76
2023/04/16 11:38:06;;;;;;;27.23;17.23;;;;;;;;;;5029375;28;20041;-75
2023/04/16 11:40:32;;;;;;;25.10;15.02;;;;;;;;;;5029753;28;20049;-76
2023/04/16 11:43:24;;;;;;;27.20;15.85;;;;;;;;;;5029335;28;20041;-76
2023/04/16 11:45:55;;;;;;;29.98;16.95;;;;;;;;;;5026310;28;20509;-76
2023/04/16 11:48:21;;;;;;;31.35;17.60;;;;;;;;;;5028289;28;20137;-75
2023/04/16 11:50:56;;;;;;;31.50;16.67;;;;;;;;;;5013352;28;20139;-74
2023/04/16 11:53:22;;;;;;;28.05;15.52;;;;;;;;;;5029258;28;20443;-75
2023/04/16 11:55:48;;;;;;;27.98;16.25;;;;;;;;;;5029224;28;20055;-75
2023/04/16 11:58:15;;;;;;;32.13;17.00;;;;;;;;;;5029976;28;20045;-75
2023/04/16 12:00:42;;;;;;;29.50;16.48;;;;;;;;;;5029054;28;20095;-75
2023/04/16 12:03:08;;;;;;;29.90;15.70;;;;;;;;;;5029274;28;20052;-75
2023/04/16 12:05:38;;;;;;;27.17;15.45;;;;;;;;;;5028544;28;20057;-75
2023/04/16 12:08:05;;;;;;;33.58;15.82;;;;;;;;;;5011731;28;20824;-75
2023/04/16 12:10:35;;;;;;;23.60;15.15;;;;;;;;;;5047810;28;20041;-75
2023/04/16 12:13:16;;;;;;;25.77;15.40;;;;;;;;;;5046278;28;20500;-75
2023/04/16 12:15:52;;;;;;;25.70;15.32;;;;;;;;;;5051763;28;20045;-75
2023/04/16 12:18:21;;;;;;;30.40;16.05;;;;;;;;;;5016687;28;20041;-75
2023/04/16 12:20:47;;;;;;;26.02;15.60;;;;;;;;;;5027937;28;20053;-75
2023/04/16 12:23:26;;;;;;;29.58;15.32;;;;;;;;;;5028310;28;20115;-76
2023/04/16 12:25:53;;;;;;;29.55;16.67;;;;;;;;;;5028949;28;20044;-75
2023/04/16 12:28:33;;;;;;;29.73;17.65;;;;;;;;;;5013729;28;20067;-75
2023/04/16 12:30:59;;;;;;;30.90;16.33;;;;;;;;;;5028423;28;20063;-76
2023/04/16 12:33:25;;;;;;;32.80;16.73;;;;;;;;;;5029515;28;20047;-75
2023/04/16 12:35:51;;;;;;;35.53;16.98;;;;;;;;;;5027650;28;20706;-73
2023/04/16 12:38:17;;;;;;;35.97;17.75;;;;;;;;;;5047232;28;20040;-75
2023/04/16 12:40:44;;;;;;;31.08;16.95;;;;;;;;;;5029074;28;20049;-76
2023/04/16 12:43:10;;;;;;;30.30;16.83;;;;;;;;;;5028666;28;20408;-75
2023/04/16 12:45:36;;;;;;;31.02;16.95;;;;;;;;;;5029675;28;20098;-76
2023/04/16 12:48:02;;;;;;;31.17;16.75;;;;;;;;;;5027418;28;20044;-76
2023/04/16 12:50:28;;;;;;;36.80;16.48;;;;;;;;;;5047470;28;20041;-76
2023/04/16 12:52:57;;;;;;;29.27;16.42;;;;;;;;;;5045168;28;20072;-76
2023/04/16 12:55:23;;;;;;;27.88;16.27;;;;;;;;;;5029045;28;20132;-76
2023/04/16 12:57:51;;;;;;;38.75;20.83;;;;;;;;;;5027351;28;20049;-76
2023/04/16 13:00:17;;;;;;;36.65;17.65;;;;;;;;;;5027994;28;20445;-76
2023/04/16 13:02:43;;;;;;;37.15;17.17;;;;;;;;;;5027813;28;20045;-76
2023/04/16 13:05:10;;;;;;;30.73;16.33;;;;;;;;;;5027846;28;20080;-75
2023/04/16 13:07:36;;;;;;;30.00;17.30;;;;;;;;;;5045594;28;20045;-76
2023/04/16 13:10:02;;;;;;;36.10;16.85;;;;;;;;;;5026897;28;20041;-76
2023/04/16 13:12:28;;;;;;;33.28;17.05;;;;;;;;;;5028674;28;20041;-75
2023/04/16 13:14:55;;;;;;;37.50;17.42;;;;;;;;;;5045660;28;20049;-76
2023/04/16 13:17:21;;;;;;;30.48;17.90;;;;;;;;;;5027831;28;20036;-75
2023/04/16 13:19:47;;;;;;;30.67;16.10;;;;;;;;;;5024190;28;20060;-76
2023/04/16 13:22:13;;;;;;;39.22;17.73;;;;;;;;;;5024610;28;20139;-75
2023/04/16 13:24:39;;;;;;;34.88;19.13;;;;;;;;;;5025240;28;20105;-76
2023/04/16 13:27:07;;;;;;;35.33;17.63;;;;;;;;;;5023505;28;20044;-75
2023/04/16 13:29:35;;;;;;;34.67;18.33;;;;;;;;;;5025294;28;20101;-75
2023/04/16 13:32:01;;;;;;;34.78;18.33;;;;;;;;;;5022528;28;20283;-76
2023/04/16 13:34:27;;;;;;;34.00;18.48;;;;;;;;;;5025687;28;20179;-76
2023/04/16 13:36:53;;;;;;;32.83;18.20;;;;;;;;;;5023732;28;20128;-74
2023/04/16 13:39:20;;;;;;;33.83;18.73;;;;;;;;;;5024898;28;20052;-75
2023/04/16 13:41:47;;;;;;;38.50;18.63;;;;;;;;;;5023879;28;20045;-74
2023/04/16 13:44:13;;;;;;;37.95;18.25;;;;;;;;;;5024125;28;20080;-75
2023/04/16 13:46:42;;;;;;;36.28;18.50;;;;;;;;;;5025459;28;20049;-75
2023/04/16 13:49:08;;;;;;;38.83;18.50;;;;;;;;;;5024029;28;20163;-75
2023/04/16 13:51:34;;;;;;;36.25;18.80;;;;;;;;;;5023382;28;20108;-76
2023/04/16 13:54:00;;;;;;;41.88;18.98;;;;;;;;;;5023416;28;20107;-76
2023/04/16 13:56:26;;;;;;;35.40;18.02;;;;;;;;;;5024458;28;20120;-75
2023/04/16 13:58:52;;;;;;;40.22;18.58;;;;;;;;;;5025598;28;20408;-76
2023/04/16 14:01:18;;;;;;;43.72;19.20;;;;;;;;;;5025340;28;20642;-75
2023/04/16 14:03:44;;;;;;;37.85;18.00;;;;;;;;;;5024280;28;20074;-75
2023/04/16 14:06:10;;;;;;;41.05;19.77;;;;;;;;;;5022962;28;20048;-75
2023/04/16 14:08:37;;;;;;;41.08;20.17;;;;;;;;;;5024950;28;20393;-76